createdAt,value
2018-09-21T00:01:32.658Z,58.75
2018-09-21T00:04:02.583Z,58.91
2018-09-21T00:06:31.545Z,59.25
2018-09-21T00:09:00.369Z,59.50
2018-09-21T00:11:29.249Z,59.41
2018-09-21T00:13:58.144Z,60.02
2018-09-21T00:16:26.821Z,59.72
2018-09-21T00:18:55.702Z,59.73
2018-09-21T00:21:24.495Z,60.05
2018-09-21T00:23:53.292Z,60.06
2018-09-21T00:26:22.243Z,59.94
2018-09-21T00:28:50.994Z,59.55
2018-09-21T00:31:19.728Z,60.26
2018-09-21T00:33:48.540Z,59.96
2018-09-21T00:36:17.263Z,59.74
2018-09-21T00:38:46.463Z,59.66
2018-09-21T00:41:15.106Z,59.87
2018-09-21T00:43:43.927Z,59.86
2018-09-21T00:46:12.714Z,59.70
2018-09-21T00:48:41.354Z,59.29
2018-09-21T00:51:11.293Z,59.79
2018-09-21T00:53:40.124Z,59.49
2018-09-21T00:56:09.070Z,60.01
2018-09-21T00:58:37.968Z,59.73
2018-09-21T01:01:06.750Z,60.43
2018-09-21T01:03:35.456Z,59.78
2018-09-21T01:06:04.163Z,59.46
2018-09-21T01:08:33.073Z,59.73
2018-09-21T01:11:01.856Z,59.63
2018-09-21T01:13:30.530Z,59.58
2018-09-21T01:15:59.402Z,59.07
2018-09-21T01:18:28.425Z,59.49
2018-09-21T01:20:57.115Z,59.72
2018-09-21T01:23:25.842Z,60.23
2018-09-21T01:25:54.548Z,59.56
2018-09-21T01:28:23.433Z,59.29
2018-09-21T01:30:52.367Z,59.78
2018-09-21T01:33:21.025Z,59.92
2018-09-21T01:35:49.750Z,59.79
2018-09-21T01:38:18.636Z,59.39
2018-09-21T01:40:47.459Z,60.51
2018-09-21T01:43:16.623Z,60.58
2018-09-21T01:45:45.480Z,60.68
2018-09-21T01:48:14.613Z,61.35
2018-09-21T01:50:43.353Z,61.36
2018-09-21T01:53:12.083Z,61.98
2018-09-21T01:55:41.041Z,60.98
2018-09-21T01:58:09.730Z,62.02
2018-09-21T02:00:38.615Z,61.91
2018-09-21T02:03:07.791Z,61.55
2018-09-21T02:05:36.666Z,61.83
2018-09-21T02:08:05.385Z,61.99
2018-09-21T02:10:34.339Z,61.25
2018-09-21T02:13:02.973Z,63.03
2018-09-21T02:15:31.812Z,62.97
2018-09-21T02:18:00.519Z,62.90
2018-09-21T02:20:29.200Z,63.91
2018-09-21T02:22:57.940Z,62.86
2018-09-21T02:25:26.601Z,64.26
2018-09-21T02:27:55.323Z,64.38
2018-09-21T02:30:23.948Z,62.86
2018-09-21T02:32:52.662Z,63.46
2018-09-21T02:35:21.510Z,64.24
2018-09-21T02:37:50.362Z,63.87
2018-09-21T02:40:19.015Z,64.67
2018-09-21T02:42:48.092Z,65.02
2018-09-21T02:45:16.795Z,65.30
2018-09-21T02:47:45.609Z,65.74
2018-09-21T02:50:14.273Z,65.36
2018-09-21T02:52:43.295Z,65.61
2018-09-21T02:55:11.999Z,65.60
2018-09-21T02:57:40.803Z,65.96
2018-09-21T03:00:10.041Z,66.38
2018-09-21T03:02:38.661Z,67.57
2018-09-21T03:05:07.890Z,66.94
2018-09-21T03:07:36.473Z,67.27
2018-09-21T03:10:05.397Z,67.00
2018-09-21T03:12:34.218Z,66.61
2018-09-21T03:15:02.860Z,66.92
2018-09-21T03:17:31.634Z,66.87
2018-09-21T03:20:00.488Z,67.85
2018-09-21T03:22:29.241Z,67.72
2018-09-21T03:24:58.000Z,67.60
2018-09-21T03:27:26.774Z,68.01
2018-09-21T03:29:55.346Z,68.33
2018-09-21T03:32:24.131Z,67.95
2018-09-21T03:34:52.900Z,68.02
2018-09-21T03:37:21.496Z,68.20
2018-09-21T03:39:50.275Z,67.94
2018-09-21T03:42:19.031Z,68.13
2018-09-21T03:44:47.751Z,68.29
2018-09-21T03:47:16.788Z,68.60
2018-09-21T03:49:45.519Z,68.96
2018-09-21T03:52:14.316Z,69.46
2018-09-21T03:54:43.060Z,69.77
2018-09-21T03:57:11.914Z,69.57
2018-09-21T03:59:40.808Z,69.88
2018-09-21T04:02:09.778Z,70.26
2018-09-21T04:04:41.513Z,70.67
2018-09-21T04:07:11.172Z,71.08
2018-09-21T04:09:40.030Z,71.07
2018-09-21T04:12:09.035Z,71.54
2018-09-21T04:14:37.700Z,71.30
2018-09-21T04:17:06.732Z,71.40
2018-09-21T04:19:35.501Z,70.94
2018-09-21T04:22:04.158Z,71.11
2018-09-21T04:24:32.796Z,70.55
2018-09-21T04:27:01.408Z,70.34
2018-09-21T04:29:30.146Z,70.23
2018-09-21T04:31:58.880Z,71.02
2018-09-21T04:34:27.724Z,71.29
2018-09-21T04:36:56.453Z,70.94
2018-09-21T04:39:25.206Z,71.04
2018-09-21T04:41:53.988Z,71.25
2018-09-21T04:44:22.690Z,71.31
2018-09-21T04:46:51.388Z,71.45
2018-09-21T04:49:20.170Z,71.25
2018-09-21T04:51:49.271Z,71.38
2018-09-21T04:54:18.047Z,70.60
2018-09-21T04:56:46.670Z,70.28
2018-09-21T04:59:15.665Z,70.68
2018-09-21T05:01:44.762Z,69.49
2018-09-21T05:04:14.493Z,68.64
2018-09-21T05:06:43.700Z,68.11
2018-09-21T05:09:12.672Z,68.28
2018-09-21T05:11:42.578Z,68.30
2018-09-21T05:14:11.840Z,69.25
2018-09-21T05:16:40.678Z,67.06
2018-09-21T05:19:10.043Z,66.99
2018-09-21T05:21:39.875Z,67.99
2018-09-21T05:24:09.381Z,67.41
2018-09-21T05:26:38.460Z,67.43
2018-09-21T05:29:08.493Z,67.26
2018-09-21T05:31:37.271Z,66.36
2018-09-21T05:34:06.311Z,66.07
2018-09-21T05:36:35.121Z,65.57
2018-09-21T05:39:04.005Z,65.92
2018-09-21T05:41:32.734Z,65.01
2018-09-21T05:44:01.304Z,64.07
2018-09-21T05:46:29.938Z,64.88
2018-09-21T05:48:58.559Z,63.44
2018-09-21T05:51:27.206Z,63.00
2018-09-21T05:53:55.965Z,63.69
2018-09-21T05:56:24.980Z,63.01
2018-09-21T05:58:53.730Z,62.23
2018-09-21T06:01:22.542Z,61.62
2018-09-21T06:03:51.294Z,62.56
2018-09-21T06:06:20.478Z,62.83
2018-09-21T06:08:49.156Z,62.60
2018-09-21T06:11:17.946Z,62.15
2018-09-21T06:13:46.807Z,61.55
2018-09-21T06:16:15.485Z,58.91
2018-09-21T06:18:44.492Z,57.42
2018-09-21T06:21:13.355Z,50.85
2018-09-21T06:23:42.027Z,41.08
2018-09-21T06:26:11.256Z,36.05
2018-09-21T06:28:40.146Z,33.14
2018-09-21T06:31:09.347Z,33.72
2018-09-21T06:33:38.448Z,33.22
2018-09-21T06:36:07.159Z,32.65
2018-09-21T06:38:36.031Z,31.14
2018-09-21T06:41:04.785Z,28.72
2018-09-21T06:43:33.573Z,29.86
2018-09-21T06:46:02.441Z,31.54
2018-09-21T06:48:31.177Z,35.64
2018-09-21T06:51:00.125Z,33.08
2018-09-21T06:53:28.704Z,35.54
2018-09-21T06:55:57.397Z,35.22
2018-09-21T06:58:26.247Z,36.95
2018-09-21T07:00:54.939Z,37.97
2018-09-21T07:03:23.703Z,40.01
2018-09-21T07:05:52.433Z,39.98
2018-09-21T07:08:21.368Z,40.38
2018-09-21T07:10:50.297Z,42.75
2018-09-21T07:13:19.094Z,42.91
2018-09-21T07:15:48.004Z,43.25
2018-09-21T07:18:23.470Z,42.08
2018-09-21T07:20:52.129Z,40.54
2018-09-21T07:23:21.043Z,42.04
2018-09-21T07:25:49.768Z,41.58
2018-09-21T07:28:18.401Z,40.91
2018-09-21T07:30:47.297Z,41.37
2018-09-21T07:33:16.065Z,42.33
2018-09-21T07:35:45.088Z,41.92
2018-09-21T07:38:14.149Z,40.90
2018-09-21T07:40:42.937Z,42.05
2018-09-21T07:43:12.175Z,41.71
2018-09-21T07:45:40.902Z,40.10
2018-09-21T07:48:10.201Z,41.11
2018-09-21T07:50:38.943Z,40.50
2018-09-21T07:53:07.806Z,41.26
2018-09-21T07:55:36.612Z,42.25
2018-09-21T07:58:05.509Z,43.58
2018-09-21T08:00:34.291Z,43.69
2018-09-21T08:03:03.123Z,43.72
2018-09-21T08:05:33.940Z,43.16
2018-09-21T08:08:04.357Z,43.46
2018-09-21T08:10:33.123Z,41.44
2018-09-21T08:13:02.369Z,41.63
2018-09-21T08:15:31.671Z,40.51
2018-09-21T08:18:00.624Z,39.25
2018-09-21T08:20:29.440Z,39.03
2018-09-21T08:22:58.267Z,37.84
2018-09-21T08:25:27.190Z,37.99
2018-09-21T08:27:55.925Z,38.49
2018-09-21T08:30:24.672Z,38.90
2018-09-21T08:32:53.400Z,36.95
2018-09-21T08:35:22.026Z,35.74
2018-09-21T08:37:50.764Z,34.55
2018-09-21T08:40:19.372Z,37.08
2018-09-21T08:42:48.679Z,35.03
2018-09-21T08:45:17.265Z,34.56
2018-09-21T08:47:46.005Z,36.59
2018-09-21T08:50:16.054Z,35.34
2018-09-21T08:52:44.940Z,37.96
2018-09-21T08:55:13.629Z,36.74
2018-09-21T08:57:42.540Z,34.91
2018-09-21T09:00:11.298Z,34.52
2018-09-21T09:02:40.194Z,34.89
2018-09-21T09:05:09.121Z,34.95
2018-09-21T09:07:38.549Z,34.33
2018-09-21T09:10:08.563Z,34.21
2018-09-21T09:12:38.614Z,35.33
2018-09-21T09:15:08.383Z,36.42
2018-09-21T09:17:37.298Z,36.83
2018-09-21T09:20:06.199Z,37.54
2018-09-21T09:22:35.058Z,38.16
2018-09-21T09:25:04.143Z,37.44
2018-09-21T09:27:33.026Z,37.57
2018-09-21T09:30:02.077Z,39.37
2018-09-21T09:32:30.771Z,39.19
2018-09-21T09:34:59.505Z,40.22
2018-09-21T09:37:28.778Z,39.05
2018-09-21T09:39:57.661Z,38.88
2018-09-21T09:42:26.594Z,36.88
2018-09-21T09:48:27.276Z,37.29
2018-09-21T09:50:56.061Z,36.17
2018-09-21T09:53:24.818Z,37.41
2018-09-21T09:55:53.546Z,36.74
2018-09-21T09:58:22.225Z,37.00
2018-09-21T10:00:51.944Z,35.20
2018-09-21T10:03:22.125Z,34.61
2018-09-21T10:05:51.185Z,33.46
2018-09-21T10:08:20.083Z,35.29
2018-09-21T10:10:49.152Z,35.04
2018-09-21T10:13:17.822Z,34.67
2018-09-21T10:15:46.800Z,34.29
2018-09-21T10:18:15.743Z,34.57
2018-09-21T10:20:44.765Z,35.13
2018-09-21T10:23:13.745Z,36.21
2018-09-21T10:25:42.380Z,37.80
2018-09-21T10:28:11.165Z,38.61
2018-09-21T10:30:39.849Z,39.01
2018-09-21T10:33:08.492Z,39.43
2018-09-21T10:35:37.259Z,40.29
2018-09-21T10:38:06.487Z,38.66
2018-09-21T10:40:35.424Z,37.75
2018-09-21T10:43:04.241Z,38.98
2018-09-21T10:45:32.953Z,38.67
2018-09-21T10:48:01.705Z,39.24
2018-09-21T10:50:30.740Z,38.47
2018-09-21T10:52:59.475Z,39.18
2018-09-21T10:55:28.357Z,39.93
2018-09-21T10:57:57.144Z,40.09
2018-09-21T11:00:25.838Z,40.60
2018-09-21T11:02:54.822Z,41.43
2018-09-21T11:05:23.792Z,41.66
2018-09-21T11:07:52.772Z,42.95
2018-09-21T11:10:21.531Z,42.83
2018-09-21T11:12:50.275Z,42.94
2018-09-21T11:15:19.020Z,43.33
2018-09-21T11:17:47.834Z,43.68
2018-09-21T11:20:16.596Z,44.07
2018-09-21T11:22:46.096Z,44.23
2018-09-21T11:25:15.121Z,43.59
2018-09-21T11:27:44.434Z,43.57
2018-09-21T11:30:13.419Z,43.94
2018-09-21T11:32:42.582Z,44.41
2018-09-21T11:35:11.425Z,44.95
2018-09-21T11:37:40.519Z,45.50
2018-09-21T11:40:09.300Z,45.68
2018-09-21T11:42:37.893Z,45.57
2018-09-21T11:45:07.384Z,45.64
2018-09-21T11:47:36.399Z,45.55
2018-09-21T11:50:05.098Z,45.48
2018-09-21T11:52:33.861Z,45.36
2018-09-21T11:55:02.533Z,45.27
2018-09-21T11:57:31.349Z,44.16
2018-09-21T12:00:00.470Z,43.12
2018-09-21T12:02:29.655Z,42.67
2018-09-21T12:04:58.478Z,42.40
2018-09-21T12:07:27.103Z,41.88
2018-09-21T12:09:55.897Z,41.05
2018-09-21T12:12:24.641Z,41.29
2018-09-21T12:14:53.434Z,41.17
2018-09-21T12:17:22.597Z,42.31
2018-09-21T12:19:51.586Z,43.34
2018-09-21T12:22:20.977Z,43.62
2018-09-21T12:24:49.917Z,43.17
2018-09-21T12:27:18.738Z,43.02
2018-09-21T12:29:47.691Z,43.19
2018-09-21T12:32:16.677Z,43.57
2018-09-21T12:34:45.568Z,43.65
2018-09-21T12:37:14.406Z,44.05
2018-09-21T12:39:43.327Z,44.08
2018-09-21T12:42:12.258Z,44.39
2018-09-21T12:44:40.959Z,43.27
2018-09-21T12:47:09.797Z,44.04
2018-09-21T12:49:39.239Z,44.89
2018-09-21T12:52:08.809Z,44.73
2018-09-21T12:54:38.127Z,45.17
2018-09-21T12:57:07.025Z,45.47
2018-09-21T12:59:35.894Z,46.29
2018-09-21T13:02:04.862Z,46.38
2018-09-21T13:04:33.670Z,46.46
2018-09-21T13:07:02.568Z,46.38
2018-09-21T13:09:32.564Z,46.59
2018-09-21T13:12:01.433Z,46.66
2018-09-21T13:14:30.070Z,47.23
2018-09-21T13:16:59.091Z,47.54
2018-09-21T13:19:28.001Z,47.53
2018-09-21T13:21:56.663Z,47.65
2018-09-21T13:24:25.728Z,48.13
2018-09-21T13:26:54.488Z,47.80
2018-09-21T13:29:23.201Z,48.65
2018-09-21T13:31:52.050Z,48.28
2018-09-21T13:34:20.835Z,49.55
2018-09-21T13:36:49.788Z,49.84
2018-09-21T13:39:18.480Z,50.90
2018-09-21T13:41:47.248Z,52.05
2018-09-21T13:44:15.856Z,52.71
2018-09-21T13:46:44.759Z,52.05
2018-09-21T13:49:13.923Z,52.49
2018-09-21T13:51:42.767Z,52.76
2018-09-21T13:54:11.522Z,52.72
2018-09-21T13:56:41.016Z,53.37
2018-09-21T13:59:09.732Z,53.22
2018-09-21T14:01:38.661Z,52.59
2018-09-21T14:04:07.634Z,52.77
2018-09-21T14:06:36.325Z,52.67
2018-09-21T14:09:06.281Z,52.49
2018-09-21T14:11:35.000Z,52.80
2018-09-21T14:14:04.009Z,53.16
2018-09-21T14:16:32.680Z,53.15
2018-09-21T14:19:01.396Z,53.16
2018-09-21T14:21:30.176Z,53.44
2018-09-21T14:23:58.844Z,53.50
2018-09-21T14:26:27.578Z,54.38
2018-09-21T14:28:56.520Z,54.69
2018-09-21T14:31:25.275Z,55.10
2018-09-21T14:34:24.549Z,55.39
2018-09-21T14:36:53.181Z,55.89
2018-09-21T14:39:21.970Z,55.84
2018-09-21T14:41:50.696Z,56.87
2018-09-21T14:44:19.581Z,57.47
2018-09-21T14:46:48.402Z,57.69
2018-09-21T14:49:17.504Z,57.89
2018-09-21T14:51:46.371Z,59.23
2018-09-21T14:54:15.453Z,60.04
2018-09-21T14:56:44.139Z,58.96
2018-09-21T14:59:13.221Z,61.04
2018-09-21T15:01:42.005Z,61.93
2018-09-21T15:04:10.700Z,62.47
2018-09-21T15:06:39.548Z,62.53
2018-09-21T15:09:09.935Z,64.20
2018-09-21T15:11:39.237Z,63.89
2018-09-21T15:14:08.287Z,66.03
2018-09-21T15:16:37.292Z,64.50
2018-09-21T15:19:06.139Z,65.09
2018-09-21T15:21:35.420Z,66.82
2018-09-21T15:24:04.345Z,66.88
2018-09-21T15:26:33.079Z,69.63
2018-09-21T15:29:01.997Z,67.75
2018-09-21T15:31:30.894Z,68.57
2018-09-21T15:33:59.548Z,69.40
2018-09-21T15:36:28.290Z,70.53
2018-09-21T15:38:57.358Z,71.31
2018-09-21T15:41:26.178Z,74.24
2018-09-21T15:43:55.050Z,72.66
2018-09-21T15:46:24.137Z,75.47
2018-09-21T15:48:53.216Z,74.03
2018-09-21T15:51:21.987Z,76.28
2018-09-21T15:53:51.016Z,77.25
2018-09-21T15:56:20.003Z,76.64
2018-09-21T15:58:48.788Z,77.72
2018-09-21T16:01:17.731Z,78.99
2018-09-21T16:03:46.460Z,80.60
2018-09-21T16:06:15.266Z,78.29
2018-09-21T16:08:44.369Z,81.13
2018-09-21T16:11:13.409Z,82.04
2018-09-21T16:13:42.399Z,81.79
2018-09-21T16:16:11.147Z,81.15
2018-09-21T16:18:40.004Z,82.01
2018-09-21T16:21:08.936Z,80.77
2018-09-21T16:23:37.621Z,81.84
2018-09-21T16:26:06.276Z,80.69
2018-09-21T16:28:35.012Z,82.77
2018-09-21T16:31:03.748Z,82.98
2018-09-21T16:33:32.506Z,82.24
2018-09-21T16:36:01.255Z,81.67
2018-09-21T16:38:29.956Z,83.02
2018-09-21T16:40:58.823Z,83.05
2018-09-21T16:43:27.661Z,83.85
2018-09-21T16:45:56.348Z,84.36
2018-09-21T16:48:25.231Z,83.45
2018-09-21T16:50:54.137Z,84.03
2018-09-21T16:53:23.376Z,83.59
2018-09-21T16:55:52.070Z,83.64
2018-09-21T16:58:21.196Z,84.28
2018-09-21T17:00:50.200Z,84.90
2018-09-21T17:03:19.257Z,85.14
2018-09-21T17:05:48.201Z,84.93
2018-09-21T17:08:16.913Z,85.68
2018-09-21T17:10:45.960Z,86.13
2018-09-21T17:13:14.936Z,86.00
2018-09-21T17:15:44.467Z,86.16
2018-09-21T17:18:13.211Z,86.34
2018-09-21T17:20:41.980Z,86.94
2018-09-21T17:23:11.161Z,85.94
2018-09-21T17:25:40.215Z,87.14
2018-09-21T17:28:09.228Z,86.58
2018-09-21T17:30:38.532Z,87.18
2018-09-21T17:33:07.561Z,87.31
2018-09-21T17:35:36.711Z,87.43
2018-09-21T17:38:06.181Z,86.97
2018-09-21T17:40:35.336Z,87.12
2018-09-21T17:43:04.239Z,87.88
2018-09-21T17:45:32.937Z,88.88
2018-09-21T17:48:01.870Z,88.31
2018-09-21T17:50:31.058Z,88.46
2018-09-21T17:53:00.268Z,89.09
2018-09-21T17:55:29.188Z,88.93
2018-09-21T17:57:58.098Z,89.49
2018-09-21T18:00:27.100Z,89.72
2018-09-21T18:02:56.037Z,89.47
2018-09-21T18:05:25.036Z,89.71
2018-09-21T18:07:53.992Z,90.08
2018-09-21T18:10:22.988Z,90.32
2018-09-21T18:12:51.901Z,90.53
2018-09-21T18:15:21.382Z,90.47
2018-09-21T18:17:50.508Z,90.54
2018-09-21T18:20:19.600Z,90.29
2018-09-21T18:22:48.665Z,90.69
2018-09-21T18:25:18.325Z,90.42
2018-09-21T18:27:47.016Z,90.64
2018-09-21T18:30:16.601Z,90.65
2018-09-21T18:32:45.631Z,90.71
2018-09-21T18:35:15.716Z,90.61
2018-09-21T18:37:44.901Z,91.00
2018-09-21T18:40:14.643Z,91.10
2018-09-21T18:42:43.311Z,90.92
2018-09-21T18:45:12.051Z,91.00
2018-09-21T18:47:42.062Z,91.03
2018-09-21T18:50:10.908Z,90.68
2018-09-21T18:52:41.643Z,90.26
2018-09-21T18:55:10.666Z,90.82
2018-09-21T18:57:39.593Z,91.02
2018-09-21T19:00:09.197Z,90.78
2018-09-21T19:02:38.026Z,90.63
2018-09-21T19:05:07.038Z,91.02
2018-09-21T19:07:35.873Z,90.49
2018-09-21T19:10:04.848Z,90.63
2018-09-21T19:12:33.634Z,90.91
2018-09-21T19:15:02.482Z,90.60
2018-09-21T19:17:31.220Z,90.82
2018-09-21T19:20:00.451Z,90.95
2018-09-21T19:22:29.512Z,91.08
2018-09-21T19:24:58.469Z,91.22
2018-09-21T19:27:27.285Z,90.82
2018-09-21T19:29:56.426Z,90.96
2018-09-21T19:32:25.326Z,90.59
2018-09-21T19:34:54.562Z,90.99
2018-09-21T19:37:24.039Z,91.02
2018-09-21T19:39:53.311Z,90.99
2018-09-21T19:42:22.286Z,90.42
2018-09-21T19:44:51.292Z,90.63
2018-09-21T19:47:21.015Z,90.50
2018-09-21T19:49:50.337Z,90.26
2018-09-21T19:52:19.919Z,90.23
2018-09-21T19:54:49.007Z,89.85
2018-09-21T19:57:18.191Z,89.78
2018-09-21T19:59:47.423Z,90.02
2018-09-21T20:02:16.202Z,90.10
2018-09-21T20:04:45.002Z,89.48
2018-09-21T20:07:14.016Z,90.29
2018-09-21T20:09:43.114Z,89.45
2018-09-21T20:12:12.609Z,89.53
2018-09-21T20:14:41.906Z,89.37
2018-09-21T20:17:10.668Z,88.88
2018-09-21T20:19:39.691Z,89.32
2018-09-21T20:22:09.735Z,89.25
2018-09-21T20:24:38.861Z,89.61
2018-09-21T20:27:07.928Z,89.52
2018-09-21T20:29:38.375Z,89.30
2018-09-21T20:32:13.865Z,88.96
2018-09-21T20:34:42.806Z,89.04
2018-09-21T20:37:11.819Z,88.96
2018-09-21T20:39:40.802Z,89.01
2018-09-21T20:42:09.849Z,89.06
2018-09-21T20:44:38.918Z,89.03
2018-09-21T20:47:08.037Z,88.65
2018-09-21T20:49:37.059Z,89.30
2018-09-21T20:52:06.475Z,88.85
2018-09-21T20:54:35.501Z,88.93
2018-09-21T20:57:04.383Z,89.22
2018-09-21T20:59:33.444Z,89.08
2018-09-21T21:02:02.436Z,89.16
2018-09-21T21:04:31.434Z,89.08
2018-09-21T21:07:00.289Z,88.97
2018-09-21T21:09:29.202Z,89.38
2018-09-21T21:11:58.200Z,89.45
2018-09-21T21:14:27.068Z,89.00
2018-09-21T21:16:55.985Z,89.24
2018-09-21T21:19:24.918Z,88.87
2018-09-21T21:21:56.349Z,89.15
2018-09-21T21:24:26.513Z,89.21
2018-09-21T21:26:55.692Z,89.00
2018-09-21T21:32:56.819Z,89.13
2018-09-21T21:35:25.479Z,89.26
2018-09-21T21:37:54.555Z,89.21
2018-09-21T21:40:24.512Z,88.87
2018-09-21T21:42:53.292Z,88.89
2018-09-21T21:45:22.221Z,89.13
2018-09-21T21:47:51.918Z,89.15
2018-09-21T21:50:20.547Z,89.34
2018-09-21T21:52:49.268Z,89.33
2018-09-21T21:55:17.975Z,89.09
2018-09-21T21:57:46.744Z,89.00
2018-09-21T22:00:15.875Z,89.02
2018-09-21T22:02:44.751Z,88.70
2018-09-21T22:05:13.615Z,88.70
2018-09-21T22:07:42.263Z,88.54
2018-09-21T22:10:11.018Z,88.41
2018-09-21T22:12:44.932Z,88.90
2018-09-21T22:15:19.076Z,88.73
2018-09-21T22:17:49.066Z,88.70
2018-09-21T22:20:18.193Z,88.73
2018-09-21T22:22:47.082Z,88.53
2018-09-21T22:25:16.081Z,88.73
2018-09-21T22:27:44.932Z,88.82
2018-09-21T22:30:14.170Z,88.52
2018-09-21T22:32:43.024Z,88.85
2018-09-21T22:35:11.718Z,88.68
2018-09-21T22:37:40.565Z,88.71
2018-09-21T22:40:09.530Z,88.80
2018-09-21T22:42:38.196Z,88.76
2018-09-21T22:45:07.173Z,88.81
2018-09-21T22:47:35.750Z,89.00
2018-09-21T22:50:04.668Z,88.98
2018-09-21T22:52:33.386Z,88.53
2018-09-21T22:55:02.136Z,88.54
2018-09-21T22:57:31.032Z,88.34
2018-09-21T22:59:59.838Z,88.41
2018-09-21T23:02:28.792Z,88.05
2018-09-21T23:04:57.939Z,88.46
2018-09-21T23:07:27.013Z,88.94
2018-09-21T23:09:55.698Z,88.65
2018-09-21T23:12:24.588Z,88.92
2018-09-21T23:14:53.237Z,88.29
2018-09-21T23:17:21.984Z,88.29
2018-09-21T23:19:50.585Z,88.00
2018-09-21T23:22:19.262Z,88.27
2018-09-21T23:24:48.761Z,87.91
2018-09-21T23:27:17.616Z,87.76
2018-09-21T23:29:46.327Z,87.97
2018-09-21T23:32:15.108Z,87.69
2018-09-21T23:34:43.863Z,87.39
2018-09-21T23:37:12.622Z,87.52
2018-09-21T23:39:41.422Z,87.59
2018-09-21T23:42:10.313Z,88.02
2018-09-21T23:44:38.962Z,87.65
2018-09-21T23:47:07.845Z,88.00
2018-09-21T23:49:36.610Z,87.37
2018-09-21T23:52:05.697Z,87.38
2018-09-21T23:54:34.887Z,87.36
2018-09-21T23:57:03.572Z,87.22
2018-09-21T23:59:32.346Z,87.14
